Barren Springs, VA (24313)

10:39 AM EST on December 03, 2016 (GMT -0500)
APRSWXNET | | Change Station

Elev 2240 ft 36.90 °N, 80.80 °W | Updated 33 minutes ago

Clear
Clear
35 °F
Feels Like 35 °F
N
1
Wind Variable Wind from SSW
Gusts 4.0 mph

Today
High -- | Low -- °F
--% Chance of Precip.
Yesterday
High -- | Low -- °F
Precip. -- in
Pressure 30.24 in
Visibility 10.0 miles
Clouds Clear
Windchill 35 °F
Dew Point 28 °F
Humidity 74%
Rainfall in
Snow Depth Not available.
7:19 AM 5:06 PM
Waxing Crescent, 15% visible
METAR KHLX 031515Z AUTO 31011G16KT 10SM CLR 00/M04 A3024 RMK AO2 T00001037
Pressure 30.24 in
Visibility 10.0 miles
Clouds Clear
Windchill 35 °F
Dew Point 28 °F
Humidity 74%
Rainfall in
Snow Depth Not available.
7:19 AM 5:06 PM
Waxing Crescent, 15% visible
METAR KHLX 031515Z AUTO 31011G16KT 10SM CLR 00/M04 A3024 RMK AO2 T00001037

10-Day Weather Forecast

Almanac

Astronomy

Dec. 03, 2016 Rise Set
Actual Time
Civil Twilight
Nautical Twilight
Astronomical Twilight
Moon
Length of Visible Light
Length of Day
Tomorrow will be .
, % of the Moon is Illuminated

Today's Extremes

State Highs State Lows

Community

WunderPhotos

Upload Photos

1,955,425 photos uploaded!

WunderBlog® & News

Nearby

Air Quality

  Air Quality AQ Index Pollutant
Not available.

Snow Depth

Station Depth Elevation

Earthquake Activity

City Distance Mag. Time & Date
Minimum magnitude displayed is 2.5.

Coastal Water Temperatures

Place Temperature

Stations

Nearby Weather Stations

Station Location Temp. Windchill Dew Point Humidity Wind Precip. Elev Updated Type
                   

Watches & Warnings

There are currently no watches in effect.